Time;durP1;ratioP1;P1;durP2;ratioP2;P2;SDS_P1;SDS_P2;PMS_P1;PMS_P2;Temp;Humidity;BMP_temperature;BMP_pressure;BME280_temperature;BME280_humidity;BME280_pressure;Samples;Min_cycle;Max_cycle;Signal;HPM_P1;HPM_P2
2022/06/28 00:00:40;;;;;;;0.20;0.20;;;14.60;99.90;;;;;;5070390;28;20546;-69
2022/06/28 00:03:05;;;;;;;0.30;0.30;;;14.70;99.90;;;;;;5067861;28;20055;-69
2022/06/28 00:05:31;;;;;;;0.08;0.08;;;14.70;99.90;;;;;;5070282;28;20148;-69
2022/06/28 00:07:57;;;;;;;0.20;0.20;;;14.70;99.90;;;;;;5070382;28;20044;-70
2022/06/28 00:10:24;;;;;;;0.30;0.30;;;14.70;99.90;;;;;;5047268;28;20040;-70
2022/06/28 00:12:50;;;;;;;0.10;0.10;;;14.70;99.90;;;;;;5072322;28;20048;-69
2022/06/28 00:18:00;;;;;;;0.10;0.10;;;14.60;99.90;;;;;;5067787;28;20056;-70
2022/06/28 00:20:26;;;;;;;0.20;0.20;;;14.60;99.90;;;;;;5081690;28;20372;-69
2022/06/28 00:22:52;;;;;;;0.10;0.10;;;14.60;99.90;;;;;;5088312;28;20097;-69
2022/06/28 00:25:17;;;;;;;0.10;0.10;;;14.60;99.90;;;;;;5083160;28;20040;-70
2022/06/28 00:27:43;;;;;;;0.10;0.10;;;14.50;99.90;;;;;;5070086;28;20387;-70
2022/06/28 00:30:10;;;;;;;0.43;0.22;;;14.50;99.90;;;;;;5052040;28;20097;-70
2022/06/28 00:32:36;;;;;;;0.10;0.10;;;14.50;99.90;;;;;;5069487;28;20459;-69
2022/06/28 00:35:03;;;;;;;0.08;0.08;;;14.50;99.90;;;;;;5046756;28;20052;-69
2022/06/28 00:37:29;;;;;;;0.80;0.80;;;14.50;99.90;;;;;;5036828;28;20048;-70
2022/06/28 00:39:55;;;;;;;0.10;0.10;;;14.50;99.90;;;;;;5070062;28;20052;-69
2022/06/28 00:42:22;;;;;;;0.10;0.10;;;14.40;99.90;;;;;;5069647;28;20048;-69
2022/06/28 00:44:48;;;;;;;6.13;1.75;;;14.40;99.90;;;;;;5069298;28;20079;-70
2022/06/28 00:47:14;;;;;;;0.10;0.10;;;14.50;99.90;;;;;;5067038;28;20048;-69
2022/06/28 00:49:41;;;;;;;0.10;0.10;;;14.50;99.90;;;;;;5069614;28;20098;-69
2022/06/28 00:52:08;;;;;;;0.10;0.10;;;14.50;99.90;;;;;;5049066;28;20079;-69
2022/06/28 00:54:34;;;;;;;0.10;0.10;;;14.60;99.90;;;;;;5050503;28;20053;-69
2022/06/28 00:57:00;;;;;;;0.20;0.20;;;14.50;99.90;;;;;;5051952;28;20045;-69
2022/06/28 00:59:26;;;;;;;0.00;0.00;;;14.40;99.90;;;;;;5062825;28;20977;-69
2022/06/28 01:01:52;;;;;;;0.10;0.10;;;14.30;99.90;;;;;;5079612;28;20033;-69
2022/06/28 01:04:18;;;;;;;0.10;0.10;;;14.40;99.90;;;;;;5068432;28;20686;-69
2022/06/28 01:06:44;;;;;;;0.10;0.10;;;14.40;99.90;;;;;;5050158;28;20049;-70
2022/06/28 01:09:10;;;;;;;0.08;0.08;;;14.40;99.90;;;;;;5036903;28;20048;-70
2022/06/28 01:11:35;;;;;;;0.10;0.10;;;14.30;99.90;;;;;;5051941;28;20049;-70
2022/06/28 01:14:05;;;;;;;0.10;0.10;;;14.30;99.90;;;;;;5037517;28;20088;-69
2022/06/28 01:16:31;;;;;;;0.03;0.03;;;14.20;99.90;;;;;;5073702;28;20041;-69
2022/06/28 01:18:57;;;;;;;0.25;0.25;;;14.20;99.90;;;;;;5066299;28;20051;-69
2022/06/28 01:21:26;;;;;;;0.10;0.10;;;14.20;99.90;;;;;;5092601;28;20068;-69
2022/06/28 01:23:52;;;;;;;0.08;0.08;;;14.10;99.90;;;;;;5094101;28;20182;-69
2022/06/28 01:26:21;;;;;;;0.00;0.00;;;14.10;99.90;;;;;;5087151;28;20119;-69
2022/06/28 01:28:48;;;;;;;0.08;0.08;;;14.10;99.90;;;;;;5093112;28;20051;-69
2022/06/28 01:31:16;;;;;;;0.10;0.10;;;14.10;99.90;;;;;;5080433;28;20971;-69
2022/06/28 01:33:41;;;;;;;0.30;0.30;;;14.00;99.90;;;;;;5072618;28;20492;-69
2022/06/28 01:36:09;;;;;;;0.10;0.10;;;14.10;99.90;;;;;;5070804;28;20040;-69
2022/06/28 01:38:38;;;;;;;0.00;0.00;;;14.10;99.90;;;;;;5072891;28;20049;-69
2022/06/28 01:41:04;;;;;;;0.10;0.10;;;14.00;99.90;;;;;;5070040;28;20147;-69
2022/06/28 01:43:32;;;;;;;0.10;0.10;;;14.10;99.90;;;;;;5073284;28;20076;-69
2022/06/28 01:45:58;;;;;;;0.10;0.10;;;14.10;99.90;;;;;;5053121;28;20067;-70
2022/06/28 01:48:25;;;;;;;0.10;0.10;;;14.10;99.90;;;;;;5072110;28;20048;-70
2022/06/28 01:50:52;;;;;;;0.10;0.10;;;14.10;99.90;;;;;;5055337;28;20063;-70
2022/06/28 01:53:18;;;;;;;0.10;0.10;;;14.00;99.90;;;;;;5086958;28;20101;-69
2022/06/28 01:55:44;;;;;;;0.10;0.10;;;14.00;99.90;;;;;;5073946;28;20052;-69
2022/06/28 01:58:10;;;;;;;0.10;0.10;;;14.00;99.90;;;;;;5055923;28;20099;-69
2022/06/28 02:00:36;;;;;;;0.00;0.00;;;14.00;99.90;;;;;;5072798;28;20036;-70
2022/06/28 02:03:02;;;;;;;0.25;0.25;;;14.00;99.90;;;;;;5069588;28;20056;-69
2022/06/28 02:05:28;;;;;;;0.00;0.00;;;14.00;99.90;;;;;;5072320;28;20491;-70
2022/06/28 02:07:55;;;;;;;0.10;0.10;;;13.90;99.90;;;;;;5054759;28;20056;-69
2022/06/28 02:10:21;;;;;;;0.10;0.10;;;13.90;99.90;;;;;;5071354;28;20037;-69
2022/06/28 02:12:47;;;;;;;0.10;0.10;;;14.00;99.90;;;;;;5072915;28;20482;-69
2022/06/28 02:15:13;;;;;;;0.28;0.28;;;14.10;99.90;;;;;;5072435;28;20040;-70
2022/06/28 02:17:40;;;;;;;0.45;0.45;;;14.00;99.90;;;;;;5069733;28;20048;-69
2022/06/28 02:20:06;;;;;;;0.05;0.05;;;14.00;99.90;;;;;;5071834;28;20047;-70
2022/06/28 02:22:32;;;;;;;0.05;0.05;;;14.00;99.90;;;;;;5072440;28;20044;-70
2022/06/28 02:24:57;;;;;;;1.00;0.75;;;14.00;99.90;;;;;;5069129;28;20105;-70
2022/06/28 02:27:23;;;;;;;0.20;0.20;;;13.90;99.90;;;;;;5050823;28;20048;-70
2022/06/28 02:29:48;;;;;;;0.10;0.10;;;13.80;99.90;;;;;;5069658;28;20090;-69
2022/06/28 02:32:14;;;;;;;0.32;0.32;;;13.80;99.90;;;;;;5091287;28;20074;-69
2022/06/28 02:40:21;;;;;;;0.15;0.15;;;13.80;99.90;;;;;;5071752;28;20102;-69
2022/06/28 02:42:58;;;;;;;0.80;0.80;;;13.80;99.90;;;;;;5070649;28;20051;-70
2022/06/28 02:45:29;;;;;;;0.10;0.10;;;13.70;99.90;;;;;;5070945;28;20483;-70
2022/06/28 02:47:55;;;;;;;0.20;0.20;;;13.70;99.90;;;;;;5072112;28;20773;-69
2022/06/28 02:50:22;;;;;;;0.15;0.15;;;13.60;99.90;;;;;;5071324;28;20040;-69
2022/06/28 02:52:47;;;;;;;0.10;0.10;;;13.50;99.90;;;;;;5048295;28;20037;-69
2022/06/28 02:55:13;;;;;;;0.30;0.30;;;13.50;99.90;;;;;;5051949;28;20110;-69
2022/06/28 02:57:39;;;;;;;0.10;0.10;;;13.50;99.90;;;;;;5077161;28;20078;-69
2022/06/28 03:00:08;;;;;;;0.28;0.28;;;13.50;99.90;;;;;;5088684;28;20089;-69
2022/06/28 03:02:35;;;;;;;0.43;0.43;;;13.50;99.90;;;;;;5069391;28;20055;-69
2022/06/28 03:05:09;;;;;;;0.10;0.10;;;13.50;99.90;;;;;;5071407;28;20041;-69
2022/06/28 03:07:35;;;;;;;0.30;0.30;;;13.50;99.90;;;;;;5069641;28;20075;-70
2022/06/28 03:10:01;;;;;;;0.40;0.40;;;13.40;99.90;;;;;;5071116;28;20052;-69
2022/06/28 03:12:26;;;;;;;0.10;0.10;;;13.40;99.90;;;;;;5052982;28;20412;-69
2022/06/28 03:14:52;;;;;;;0.10;0.10;;;13.40;99.90;;;;;;5069732;28;20048;-70
2022/06/28 03:17:18;;;;;;;0.10;0.10;;;13.40;99.90;;;;;;5070287;28;20037;-69
2022/06/28 03:19:43;;;;;;;0.20;0.20;;;13.40;99.90;;;;;;5070473;28;20041;-69
2022/06/28 03:22:09;;;;;;;0.10;0.10;;;13.40;99.90;;;;;;5067158;28;20044;-70
2022/06/28 03:24:34;;;;;;;0.13;0.13;;;13.40;99.90;;;;;;5091127;28;20503;-69
2022/06/28 03:27:00;;;;;;;18.30;1.40;;;13.40;99.90;;;;;;5090317;28;20040;-69
2022/06/28 03:29:26;;;;;;;0.00;0.00;;;13.40;99.90;;;;;;5068466;28;20041;-69
2022/06/28 03:31:51;;;;;;;4.85;2.10;;;13.40;99.90;;;;;;5071032;28;20170;-69
2022/06/28 03:34:19;;;;;;;5.05;0.63;;;13.40;99.90;;;;;;5071081;28;20209;-70
2022/06/28 03:36:46;;;;;;;0.05;0.05;;;13.50;99.90;;;;;;5071129;28;20048;-69
2022/06/28 03:39:12;;;;;;;0.10;0.10;;;13.50;99.90;;;;;;5080102;28;20453;-69
2022/06/28 03:41:37;;;;;;;0.10;0.10;;;13.60;99.90;;;;;;5070086;28;20127;-69
2022/06/28 03:44:03;;;;;;;0.00;0.00;;;13.60;99.90;;;;;;5077351;28;20131;-69
2022/06/28 03:46:29;;;;;;;1.20;0.57;;;13.60;99.90;;;;;;5090942;28;20040;-69
2022/06/28 03:48:55;;;;;;;0.10;0.10;;;13.60;99.90;;;;;;5077343;28;20076;-69
2022/06/28 03:51:20;;;;;;;0.10;0.10;;;13.70;99.90;;;;;;5070150;28;20040;-69
2022/06/28 03:53:46;;;;;;;0.10;0.10;;;13.70;99.90;;;;;;5048693;28;20055;-69
2022/06/28 03:56:11;;;;;;;0.08;0.08;;;13.70;99.90;;;;;;5067054;28;20048;-69
2022/06/28 03:58:37;;;;;;;0.10;0.10;;;13.60;99.90;;;;;;5070445;28;20048;-69
2022/06/28 04:01:03;;;;;;;0.57;0.47;;;13.70;99.90;;;;;;5070383;28;20093;-70
2022/06/28 04:03:29;;;;;;;0.08;0.08;;;13.80;99.90;;;;;;5067632;28;20067;-69
2022/06/28 04:05:55;;;;;;;0.00;0.00;;;13.80;99.90;;;;;;5070086;28;20106;-69
2022/06/28 04:08:20;;;;;;;0.10;0.10;;;13.90;99.90;;;;;;5068067;28;20767;-69
2022/06/28 04:10:46;;;;;;;0.10;0.10;;;13.90;99.90;;;;;;5069863;28;20052;-69
2022/06/28 04:13:12;;;;;;;0.10;0.10;;;14.00;99.90;;;;;;5052314;28;20715;-70
2022/06/28 04:15:37;;;;;;;0.20;0.20;;;14.00;99.90;;;;;;5049633;28;20047;-69
2022/06/28 04:18:04;;;;;;;0.00;0.00;;;14.10;99.90;;;;;;5069898;28;20080;-69
2022/06/28 04:20:31;;;;;;;0.00;0.00;;;14.10;99.90;;;;;;5069947;28;20131;-69
2022/06/28 04:22:57;;;;;;;0.00;0.00;;;14.20;99.90;;;;;;5051763;28;20456;-69
2022/06/28 04:25:22;;;;;;;0.10;0.10;;;14.20;99.90;;;;;;5049423;28;20079;-69
2022/06/28 04:27:48;;;;;;;0.10;0.10;;;14.30;99.90;;;;;;5047052;28;20132;-69
2022/06/28 04:30:14;;;;;;;0.03;0.03;;;14.30;99.90;;;;;;5049118;28;20452;-70
2022/06/28 04:32:40;;;;;;;0.25;0.20;;;14.30;99.90;;;;;;5055918;28;20392;-69
2022/06/28 04:35:06;;;;;;;0.00;0.00;;;14.40;99.90;;;;;;5069646;28;20055;-70
2022/06/28 04:37:31;;;;;;;0.10;0.10;;;14.50;99.90;;;;;;5069340;28;20044;-70
2022/06/28 04:39:57;;;;;;;0.00;0.00;;;14.50;99.90;;;;;;5049509;28;20169;-69
2022/06/28 04:42:23;;;;;;;0.13;0.13;;;14.50;99.90;;;;;;5069885;28;20044;-70
2022/06/28 04:44:48;;;;;;;0.00;0.00;;;14.60;99.90;;;;;;5069764;28;20048;-69
2022/06/28 04:47:14;;;;;;;0.10;0.10;;;14.60;99.90;;;;;;5069966;28;20846;-70
2022/06/28 04:49:40;;;;;;;0.00;0.00;;;14.60;99.90;;;;;;5054760;28;20614;-69
2022/06/28 04:52:05;;;;;;;1.17;0.95;;;14.60;99.90;;;;;;5089037;28;20040;-69
2022/06/28 04:54:32;;;;;;;0.10;0.10;;;14.60;99.90;;;;;;5090014;28;20050;-69
2022/06/28 04:56:57;;;;;;;0.10;0.10;;;14.70;99.90;;;;;;5074023;28;20041;-69
2022/06/28 04:59:23;;;;;;;0.10;0.10;;;14.80;99.90;;;;;;5067175;28;20036;-69
2022/06/28 05:01:48;;;;;;;0.10;0.10;;;14.90;99.90;;;;;;5069773;28;20045;-69
2022/06/28 05:04:14;;;;;;;0.10;0.10;;;14.90;99.90;;;;;;5069468;28;20044;-69
2022/06/28 05:06:40;;;;;;;0.10;0.10;;;15.00;99.90;;;;;;5045441;28;20053;-69
2022/06/28 05:09:06;;;;;;;0.10;0.10;;;15.00;99.90;;;;;;5047718;28;20496;-69
2022/06/28 05:11:32;;;;;;;0.75;0.75;;;15.00;99.90;;;;;;5056529;28;20156;-69
2022/06/28 05:13:59;;;;;;;0.10;0.10;;;15.10;99.90;;;;;;5068721;28;20045;-70
2022/06/28 05:16:24;;;;;;;0.10;0.10;;;15.10;99.90;;;;;;5068123;28;20068;-69
2022/06/28 05:18:50;;;;;;;0.00;0.00;;;15.10;99.90;;;;;;5068898;28;20087;-69
2022/06/28 05:21:16;;;;;;;0.10;0.10;;;15.20;99.90;;;;;;5069647;28;20480;-70
2022/06/28 05:23:42;;;;;;;0.00;0.00;;;15.20;99.90;;;;;;5051179;28;20092;-70
2022/06/28 05:26:08;;;;;;;0.00;0.00;;;15.30;99.90;;;;;;5088440;28;20072;-69
2022/06/28 05:28:33;;;;;;;0.20;0.20;;;15.30;99.90;;;;;;5071455;28;20101;-69
2022/06/28 05:30:59;;;;;;;0.00;0.00;;;15.40;99.90;;;;;;5089797;28;20043;-69
2022/06/28 05:33:24;;;;;;;0.10;0.10;;;15.50;99.90;;;;;;5048216;28;20568;-69
2022/06/28 05:35:50;;;;;;;0.10;0.10;;;15.50;99.90;;;;;;5069231;28;20036;-69
2022/06/28 05:38:16;;;;;;;0.00;0.00;;;15.60;99.90;;;;;;5051321;28;20110;-69
2022/06/28 05:40:41;;;;;;;0.05;0.05;;;15.60;99.90;;;;;;5069420;28;20090;-70
2022/06/28 05:43:08;;;;;;;0.13;0.13;;;15.70;99.90;;;;;;5051362;28;20049;-70
2022/06/28 05:45:33;;;;;;;0.40;0.40;;;15.70;99.90;;;;;;5035069;28;20451;-69
2022/06/28 05:47:59;;;;;;;0.03;0.03;;;15.70;99.90;;;;;;5033568;28;20127;-69
2022/06/28 05:50:25;;;;;;;0.50;0.50;;;15.80;99.90;;;;;;5054434;28;20055;-69
2022/06/28 05:52:51;;;;;;;0.10;0.10;;;15.80;99.90;;;;;;5055087;28;20056;-70
2022/06/28 05:55:17;;;;;;;0.10;0.10;;;15.80;99.90;;;;;;5054105;28;20049;-70
2022/06/28 05:57:42;;;;;;;0.20;0.20;;;15.90;99.90;;;;;;5054761;28;20040;-69
2022/06/28 06:00:09;;;;;;;0.05;0.05;;;15.90;99.90;;;;;;5072604;28;20044;-69
2022/06/28 06:02:35;;;;;;;0.10;0.10;;;16.00;99.90;;;;;;5072110;28;20115;-70
2022/06/28 06:05:02;;;;;;;0.00;0.00;;;16.00;99.90;;;;;;5072599;28;20132;-70
2022/06/28 06:07:29;;;;;;;0.10;0.10;;;16.10;99.90;;;;;;5076074;28;20047;-70
2022/06/28 06:09:55;;;;;;;0.17;0.17;;;16.10;99.90;;;;;;5092189;28;20432;-69
2022/06/28 06:12:21;;;;;;;0.10;0.10;;;16.10;99.90;;;;;;5092536;28;20048;-70
2022/06/28 06:14:46;;;;;;;1.88;1.60;;;16.20;99.90;;;;;;5080226;28;20085;-69
2022/06/28 06:17:12;;;;;;;0.00;0.00;;;16.20;99.90;;;;;;5071599;28;20164;-69
2022/06/28 06:19:38;;;;;;;0.10;0.10;;;16.30;99.90;;;;;;5072881;28;20535;-70
2022/06/28 06:22:03;;;;;;;0.30;0.30;;;16.30;99.90;;;;;;5049308;28;20052;-69
2022/06/28 06:24:29;;;;;;;0.00;0.00;;;16.40;99.90;;;;;;5047441;28;20052;-70
2022/06/28 06:26:55;;;;;;;0.10;0.10;;;16.40;99.90;;;;;;5052734;28;20045;-69
2022/06/28 06:29:20;;;;;;;0.00;0.00;;;16.40;99.90;;;;;;5051119;28;20053;-69
2022/06/28 06:31:46;;;;;;;0.00;0.00;;;16.40;99.90;;;;;;5067085;28;20054;-69
2022/06/28 06:34:13;;;;;;;0.10;0.10;;;16.50;99.90;;;;;;5072006;28;20049;-69
2022/06/28 06:36:39;;;;;;;0.00;0.00;;;16.50;99.90;;;;;;5068326;28;20452;-69
2022/06/28 06:39:05;;;;;;;0.05;0.05;;;16.60;99.90;;;;;;5064667;28;20105;-69
2022/06/28 06:41:30;;;;;;;0.65;0.22;;;16.60;99.90;;;;;;5072017;28;20076;-70
2022/06/28 06:43:56;;;;;;;0.10;0.10;;;16.70;99.90;;;;;;5069493;28;20090;-69
2022/06/28 06:46:22;;;;;;;0.00;0.00;;;16.70;99.90;;;;;;5052718;28;20415;-69
2022/06/28 06:48:47;;;;;;;0.10;0.10;;;16.70;99.90;;;;;;5051274;28;20052;-70
2022/06/28 06:51:13;;;;;;;0.10;0.10;;;16.70;99.90;;;;;;5048397;28;20045;-70
2022/06/28 06:53:38;;;;;;;2.63;0.75;;;16.70;99.90;;;;;;5051913;28;20449;-70
2022/06/28 06:56:04;;;;;;;0.10;0.10;;;16.80;99.90;;;;;;5051227;28;20057;-70
2022/06/28 06:58:30;;;;;;;0.00;0.00;;;16.90;99.90;;;;;;5064633;28;20088;-70
2022/06/28 07:00:57;;;;;;;0.88;0.80;;;16.90;99.90;;;;;;5071487;28;20093;-69
2022/06/28 07:03:23;;;;;;;1.30;0.75;;;17.00;99.90;;;;;;5071370;28;20080;-70
2022/06/28 07:05:48;;;;;;;0.32;0.32;;;17.00;99.90;;;;;;5070001;28;20080;-70
2022/06/28 07:08:14;;;;;;;0.10;0.10;;;17.10;99.90;;;;;;5070450;28;20483;-70
2022/06/28 07:10:40;;;;;;;1.63;0.88;;;17.10;99.90;;;;;;5052530;28;20075;-69
2022/06/28 07:13:05;;;;;;;0.10;0.10;;;17.10;99.90;;;;;;5089843;28;20168;-70
2022/06/28 07:15:31;;;;;;;0.20;0.20;;;17.10;99.90;;;;;;5076203;28;20048;-70
2022/06/28 07:17:56;;;;;;;0.00;0.00;;;17.10;99.90;;;;;;5069495;28;20055;-70
2022/06/28 07:20:22;;;;;;;0.00;0.00;;;17.10;99.90;;;;;;5048972;28;20060;-70
2022/06/28 07:22:48;;;;;;;0.00;0.00;;;17.20;99.90;;;;;;5051367;28;20083;-70
2022/06/28 07:25:13;;;;;;;0.00;0.00;;;17.20;99.90;;;;;;5069358;28;20468;-71
2022/06/28 07:27:39;;;;;;;0.32;0.32;;;17.30;99.90;;;;;;5048981;28;20106;-71
2022/06/28 07:30:05;;;;;;;0.90;0.57;;;17.40;99.90;;;;;;5077740;28;20530;-70
2022/06/28 07:32:31;;;;;;;0.10;0.10;;;17.40;99.90;;;;;;5090635;28;20044;-70
2022/06/28 07:34:57;;;;;;;0.90;0.40;;;17.30;99.90;;;;;;5073021;28;20540;-71
2022/06/28 07:37:23;;;;;;;0.10;0.10;;;17.30;99.90;;;;;;5091527;28;20051;-71
2022/06/28 07:39:48;;;;;;;0.10;0.10;;;17.40;99.90;;;;;;5077211;28;20071;-71
2022/06/28 07:42:14;;;;;;;0.08;0.08;;;17.40;99.90;;;;;;5071039;28;20041;-71
2022/06/28 07:44:39;;;;;;;0.10;0.10;;;17.40;99.90;;;;;;5071222;28;20048;-70
2022/06/28 07:47:05;;;;;;;0.10;0.10;;;17.40;99.90;;;;;;5069321;28;20075;-70
2022/06/28 07:52:33;;;;;;;0.40;0.40;;;17.40;99.90;;;;;;5079467;28;20395;-70
2022/06/28 07:55:00;;;;;;;0.00;0.00;;;17.50;99.90;;;;;;5071754;28;20146;-71
2022/06/28 07:57:26;;;;;;;0.10;0.10;;;17.50;99.90;;;;;;5063487;28;20120;-71
2022/06/28 07:59:51;;;;;;;0.00;0.00;;;17.50;99.90;;;;;;5070820;28;20048;-71
2022/06/28 08:02:17;;;;;;;0.73;0.55;;;17.60;99.90;;;;;;5069798;28;20385;-71
2022/06/28 08:04:43;;;;;;;0.10;0.10;;;17.70;99.90;;;;;;5064452;28;20048;-71
2022/06/28 08:07:08;;;;;;;0.00;0.00;;;17.70;99.90;;;;;;5070491;28;20499;-71
2022/06/28 08:09:34;;;;;;;0.20;0.20;;;17.70;99.90;;;;;;5068334;28;20484;-71
2022/06/28 08:11:59;;;;;;;0.08;0.08;;;17.70;99.90;;;;;;5070324;28;20037;-71
2022/06/28 08:14:26;;;;;;;0.85;0.85;;;17.80;99.90;;;;;;5070401;28;20036;-71
2022/06/28 08:16:52;;;;;;;0.00;0.00;;;17.80;99.90;;;;;;5050219;28;20400;-71
2022/06/28 08:19:19;;;;;;;0.20;0.20;;;17.80;99.90;;;;;;5068552;28;20098;-71
2022/06/28 08:21:45;;;;;;;0.00;0.00;;;17.90;99.90;;;;;;5069470;28;20128;-71
2022/06/28 08:24:11;;;;;;;0.10;0.10;;;18.00;99.90;;;;;;5068143;28;20120;-71
2022/06/28 08:26:42;;;;;;;0.80;0.60;;;18.00;99.90;;;;;;5069945;28;20399;-72
2022/06/28 08:29:12;;;;;;;0.43;0.43;;;18.00;99.90;;;;;;5067543;28;20040;-71
2022/06/28 08:31:37;;;;;;;0.10;0.10;;;18.00;99.90;;;;;;5070132;28;20063;-71
2022/06/28 08:34:04;;;;;;;0.13;0.13;;;18.10;99.90;;;;;;5069955;28;20484;-72
2022/06/28 08:36:30;;;;;;;0.35;0.35;;;18.10;99.90;;;;;;5076472;28;20483;-71
2022/06/28 08:38:56;;;;;;;0.90;0.90;;;18.20;99.90;;;;;;5070492;28;20055;-71
2022/06/28 08:41:25;;;;;;;0.00;0.00;;;18.30;99.90;;;;;;5069718;28;20048;-72
2022/06/28 08:43:52;;;;;;;0.10;0.10;;;18.40;99.90;;;;;;5069602;28;20060;-72
2022/06/28 08:46:18;;;;;;;0.00;0.00;;;18.40;99.90;;;;;;5067719;28;20054;-71
2022/06/28 08:48:51;;;;;;;0.10;0.10;;;18.40;99.90;;;;;;5070188;28;20186;-71
2022/06/28 08:51:17;;;;;;;;;;;18.40;99.90;;;;;;5082900;28;20044;-71
2022/06/28 08:53:45;;;;;;;0.10;0.10;;;18.40;99.90;;;;;;5090048;28;19931;-72
2022/06/28 08:56:11;;;;;;;0.00;0.00;;;18.40;99.90;;;;;;5048941;28;20049;-72
2022/06/28 08:58:42;;;;;;;0.05;0.05;;;18.50;99.90;;;;;;5050925;28;20062;-71
2022/06/28 09:01:09;;;;;;;0.20;0.20;;;18.50;99.90;;;;;;5069170;28;20041;-72
2022/06/28 09:03:35;;;;;;;0.10;0.10;;;18.60;99.90;;;;;;5089655;28;20117;-71
2022/06/28 09:06:00;;;;;;;0.30;0.30;;;18.70;99.90;;;;;;5089532;28;20040;-72
2022/06/28 09:08:26;;;;;;;0.40;0.22;;;18.70;99.90;;;;;;5090056;28;20541;-72
2022/06/28 09:10:52;;;;;;;1.83;1.35;;;18.80;99.90;;;;;;5079608;28;20139;-71
2022/06/28 09:13:20;;;;;;;1.45;0.40;;;18.80;99.90;;;;;;5047777;28;20049;-72
2022/06/28 09:15:49;;;;;;;0.00;0.00;;;18.70;99.90;;;;;;5051791;28;20044;-72
2022/06/28 09:18:16;;;;;;;0.05;0.05;;;18.70;99.90;;;;;;5052949;28;20045;-72
2022/06/28 09:20:42;;;;;;;0.25;0.22;;;18.70;99.90;;;;;;5072994;28;20045;-72
2022/06/28 09:23:29;;;;;;;0.03;0.03;;;18.80;99.90;;;;;;5073488;28;20044;-72
2022/06/28 09:26:13;;;;;;;0.00;0.00;;;18.80;99.90;;;;;;5073095;28;20046;-72
2022/06/28 09:28:44;;;;;;;0.00;0.00;;;18.70;99.90;;;;;;5070721;28;20049;-71
2022/06/28 09:31:20;;;;;;;0.38;0.38;;;18.70;99.90;;;;;;5051740;28;20056;-71
2022/06/28 09:34:04;;;;;;;0.10;0.10;;;18.70;99.90;;;;;;5034971;28;20124;-71
2022/06/28 09:36:34;;;;;;;0.75;0.45;;;18.80;99.90;;;;;;5053146;28;20061;-72
2022/06/28 09:39:13;;;;;;;3.92;1.65;;;18.90;99.90;;;;;;5062292;28;20467;-72
2022/06/28 09:41:44;;;;;;;2.30;0.25;;;19.00;99.90;;;;;;5053067;28;20204;-72
2022/06/28 09:44:10;;;;;;;0.10;0.10;;;19.10;99.90;;;;;;5053151;28;20051;-72
2022/06/28 09:46:36;;;;;;;0.30;0.30;;;19.20;99.90;;;;;;5039597;28;20056;-71
2022/06/28 09:49:06;;;;;;;0.35;0.35;;;19.60;99.90;;;;;;5051302;28;20614;-72
2022/06/28 09:51:33;;;;;;;0.00;0.00;;;20.10;99.90;;;;;;5052884;28;20045;-71
2022/06/28 09:54:04;;;;;;;11.77;0.77;;;20.50;99.90;;;;;;5066281;28;20048;-71
2022/06/28 09:56:37;;;;;;;0.00;0.00;;;20.80;99.90;;;;;;5092793;28;20513;-72
2022/06/28 09:59:04;;;;;;;0.57;0.57;;;21.10;99.90;;;;;;5071656;28;20044;-72
2022/06/28 10:01:30;;;;;;;0.22;0.15;;;21.40;99.90;;;;;;5072179;28;20127;-72
2022/06/28 10:03:58;;;;;;;0.00;0.00;;;21.70;99.90;;;;;;5073087;28;20044;-72
2022/06/28 10:06:24;;;;;;;0.10;0.10;;;21.70;99.90;;;;;;5054467;28;20070;-72
2022/06/28 10:08:50;;;;;;;0.00;0.00;;;21.80;99.90;;;;;;5048905;28;20400;-72
2022/06/28 10:11:16;;;;;;;0.00;0.00;;;22.00;99.90;;;;;;5092542;28;20044;-72
2022/06/28 10:16:46;;;;;;;0.00;0.00;;;21.90;99.90;;;;;;5040397;28;20056;-71
2022/06/28 10:19:17;;;;;;;0.00;0.00;;;22.00;99.90;;;;;;5065294;28;20049;-72
2022/06/28 10:21:43;;;;;;;0.03;0.03;;;21.90;99.90;;;;;;5066117;28;20041;-72
2022/06/28 10:24:08;;;;;;;0.00;0.00;;;21.90;99.90;;;;;;5051118;28;20059;-71
2022/06/28 10:26:34;;;;;;;0.00;0.00;;;21.90;99.90;;;;;;5034760;28;20048;-71
2022/06/28 10:29:08;;;;;;;0.95;0.85;;;22.00;99.90;;;;;;5062114;28;20051;-71
2022/06/28 10:31:37;;;;;;;0.10;0.10;;;22.20;99.90;;;;;;5072195;28;20074;-71
2022/06/28 10:34:08;;;;;;;2.05;0.57;;;22.10;99.90;;;;;;5070037;28;20510;-72
2022/06/28 10:36:56;;;;;;;0.00;0.00;;;22.00;99.90;;;;;;5071713;28;20051;-72
2022/06/28 10:39:27;;;;;;;0.20;0.20;;;21.80;99.90;;;;;;5071719;28;20505;-71
2022/06/28 10:41:53;;;;;;;0.20;0.20;;;21.70;99.90;;;;;;5069647;28;20066;-71
2022/06/28 10:44:41;;;;;;;0.00;0.00;;;21.60;99.90;;;;;;5091557;28;20048;-71
2022/06/28 10:47:07;;;;;;;0.00;0.00;;;21.70;99.90;;;;;;5074216;28;20083;-71
2022/06/28 10:49:42;;;;;;;0.10;0.10;;;21.80;99.90;;;;;;5091926;28;20105;-71
2022/06/28 10:52:19;;;;;;;0.00;0.00;;;22.00;99.90;;;;;;5090585;28;20052;-72
2022/06/28 10:54:56;;;;;;;0.00;0.00;;;21.60;99.90;;;;;;5092415;28;20044;-72
2022/06/28 10:57:32;;;;;;;0.10;0.10;;;21.40;99.90;;;;;;5071296;28;20070;-71
2022/06/28 11:00:00;;;;;;;0.00;0.00;;;21.40;99.90;;;;;;5071249;28;20165;-72
2022/06/28 11:02:59;;;;;;;0.03;0.00;;;21.60;99.90;;;;;;5054160;28;20063;-72
2022/06/28 11:05:48;;;;;;;0.00;0.00;;;21.70;99.90;;;;;;5048250;28;20396;-72
2022/06/28 11:08:34;;;;;;;0.00;0.00;;;22.00;99.90;;;;;;5071821;28;20044;-72
2022/06/28 11:11:04;;;;;;;0.00;0.00;;;22.10;99.90;;;;;;5070217;28;20504;-72
2022/06/28 11:13:30;;;;;;;0.10;0.10;;;22.20;99.90;;;;;;5071864;28;20045;-71
2022/06/28 11:15:56;;;;;;;2.08;1.13;;;22.30;99.90;;;;;;5050226;28;20056;-71
2022/06/28 11:18:25;;;;;;;0.00;0.00;;;22.00;99.90;;;;;;5050784;28;20144;-72
2022/06/28 11:20:52;;;;;;;0.80;0.22;;;21.80;99.90;;;;;;5035304;28;20740;-72
2022/06/28 11:23:31;;;;;;;0.10;0.10;;;22.10;99.90;;;;;;5064519;28;20051;-72
2022/06/28 11:28:57;;;;;;;0.17;0.17;;;22.30;99.90;;;;;;5050837;28;20493;-72
2022/06/28 11:31:24;;;;;;;0.10;0.10;;;22.20;99.90;;;;;;5050879;28;20106;-73
2022/06/28 11:33:50;;;;;;;0.20;0.20;;;21.80;99.90;;;;;;5065782;28;20037;-72
2022/06/28 11:36:31;;;;;;;0.10;0.10;;;21.70;99.90;;;;;;5067063;28;20048;-73
2022/06/28 11:39:24;;;;;;;0.08;0.08;;;21.90;99.90;;;;;;5058236;28;20036;-72
2022/06/28 11:41:51;;;;;;;0.00;0.00;;;22.40;99.90;;;;;;5063581;28;20062;-73
2022/06/28 11:44:18;;;;;;;0.00;0.00;;;22.70;99.90;;;;;;5090964;28;20075;-72
2022/06/28 11:46:45;;;;;;;1.30;0.40;;;22.80;99.90;;;;;;5063255;28;20044;-72
2022/06/28 11:49:11;;;;;;;0.10;0.10;;;22.90;99.90;;;;;;5066337;28;20079;-71
2022/06/28 11:51:40;;;;;;;0.25;0.25;;;23.00;99.90;;;;;;5070710;28;20036;-71
2022/06/28 11:54:08;;;;;;;0.00;0.00;;;22.90;99.90;;;;;;5066731;28;20457;-71
2022/06/28 11:56:47;;;;;;;0.00;0.00;;;23.20;99.90;;;;;;5070117;28;20531;-72
2022/06/28 11:59:15;;;;;;;0.00;0.00;;;23.40;99.90;;;;;;5072473;28;20036;-72
2022/06/28 12:01:42;;;;;;;0.00;0.00;;;23.50;99.90;;;;;;5077066;28;20070;-72
2022/06/28 12:04:09;;;;;;;0.15;0.15;;;23.80;99.90;;;;;;5070356;28;20369;-72
2022/06/28 12:06:39;;;;;;;0.00;0.00;;;23.70;99.90;;;;;;5051189;28;20041;-72
2022/06/28 12:09:07;;;;;;;0.00;0.00;;;24.10;99.90;;;;;;5054803;28;20059;-71
2022/06/28 12:11:44;;;;;;;1.48;0.45;;;24.00;99.90;;;;;;5064241;28;20040;-72
2022/06/28 12:14:21;;;;;;;0.03;0.03;;;24.00;99.90;;;;;;5058648;28;20066;-71
2022/06/28 12:16:59;;;;;;;0.03;0.03;;;24.20;99.90;;;;;;5056856;28;20492;-72
2022/06/28 12:19:29;;;;;;;1.65;0.98;;;24.20;99.90;;;;;;5047189;28;20051;-71
2022/06/28 12:21:58;;;;;;;0.00;0.00;;;24.40;99.90;;;;;;5035662;28;20045;-72
2022/06/28 12:24:56;;;;;;;0.15;0.15;;;24.40;99.80;;;;;;5059617;28;20411;-71
2022/06/28 12:27:34;;;;;;;0.00;0.00;;;24.50;99.90;;;;;;4991404;28;20070;-72
2022/06/28 12:30:00;;;;;;;0.10;0.10;;;24.50;99.20;;;;;;5056840;28;20029;-72
2022/06/28 12:32:27;;;;;;;0.00;0.00;;;24.70;99.90;;;;;;5064431;28;20036;-72
2022/06/28 12:35:02;;;;;;;0.00;0.00;;;24.80;99.70;;;;;;5057514;28;20048;-72
2022/06/28 12:37:28;;;;;;;0.00;0.00;;;24.90;99.90;;;;;;5064296;28;20084;-72
2022/06/28 12:39:55;;;;;;;0.00;0.00;;;25.10;99.90;;;;;;5031838;28;20044;-72
2022/06/28 12:42:20;;;;;;;0.00;0.00;;;25.20;98.80;;;;;;5065307;28;20772;-72
2022/06/28 12:44:46;;;;;;;0.85;0.32;;;25.50;99.30;;;;;;5072101;28;20059;-71
2022/06/28 12:47:11;;;;;;;0.25;0.25;;;25.10;98.10;;;;;;5057576;28;20507;-71
2022/06/28 12:49:37;;;;;;;0.10;0.10;;;25.20;99.80;;;;;;5055078;28;20052;-72
2022/06/28 12:52:04;;;;;;;0.00;0.00;;;25.00;99.40;;;;;;5063532;28;20041;-72
2022/06/28 12:54:30;;;;;;;0.00;0.00;;;25.00;99.80;;;;;;5046023;28;20061;-72
2022/06/28 12:56:56;;;;;;;0.22;0.22;;;25.30;99.90;;;;;;5065797;28;20059;-72
2022/06/28 12:59:21;;;;;;;0.00;0.00;;;25.40;99.60;;;;;;5073168;28;20052;-72
2022/06/28 13:01:47;;;;;;;0.10;0.10;;;25.40;98.40;;;;;;5074217;28;20052;-72
2022/06/28 13:04:14;;;;;;;2.63;0.75;;;25.30;97.10;;;;;;5035098;28;20051;-72
2022/06/28 13:06:44;;;;;;;0.40;0.40;;;25.30;98.50;;;;;;5055801;28;20045;-73